Incourt, Belgium
Current Conditions -  °F | °C
As of 8:25 AM on Saturday 20 Dec 2014 (Local Time) from EBBE Reporting Station
Broken Clouds Broken Clouds  
Wind Chill: 33°   Ceiling: 17000
Heat Index: 41°   Visibility: 6mi
Dew Point: 36°   Wind: 15mph
Humidity: 81%   Direction: 240°WSW
Pressure: 30.21"   Gusts: NA
Location:  50.69°N, 4.8°E
Report Text: EBBE 200725Z AUTO 24013KT 9999 BKN170/// 05/02 Q1023 BLU
Loading
Personal Weather Stations






























Interactive Weather Map New forecast layout! Learn more

10-Day Weather Forecast

Advertisements
Track Severe Weather on mobile